sensor_id;sensor_type;location;lat;lon;timestamp;temperature;humidity
19180;DHT22;9722;48.754;8.868;2023-04-01T00:00:58;8.40;99.90
19180;DHT22;9722;48.754;8.868;2023-04-01T00:04:18;8.40;99.60
19180;DHT22;9722;48.754;8.868;2023-04-01T00:07:40;8.40;99.30
19180;DHT22;9722;48.754;8.868;2023-04-01T00:11:01;8.50;99.20
19180;DHT22;9722;48.754;8.868;2023-04-01T00:14:21;8.50;99.10
19180;DHT22;9722;48.754;8.868;2023-04-01T00:17:42;8.60;98.90
19180;DHT22;9722;48.754;8.868;2023-04-01T00:21:03;8.60;98.80
19180;DHT22;9722;48.754;8.868;2023-04-01T00:24:23;8.60;98.70
19180;DHT22;9722;48.754;8.868;2023-04-01T00:27:44;8.60;98.70
19180;DHT22;9722;48.754;8.868;2023-04-01T00:31:09;8.50;98.70
19180;DHT22;9722;48.754;8.868;2023-04-01T00:34:29;8.60;98.70
19180;DHT22;9722;48.754;8.868;2023-04-01T00:37:50;8.60;98.80
19180;DHT22;9722;48.754;8.868;2023-04-01T00:41:13;8.60;98.90
19180;DHT22;9722;48.754;8.868;2023-04-01T00:44:37;8.60;99.00
19180;DHT22;9722;48.754;8.868;2023-04-01T00:48:03;8.50;99.20
19180;DHT22;9722;48.754;8.868;2023-04-01T00:51:27;8.50;99.30
19180;DHT22;9722;48.754;8.868;2023-04-01T00:54:53;8.50;99.60
19180;DHT22;9722;48.754;8.868;2023-04-01T00:58:16;8.50;99.70
19180;DHT22;9722;48.754;8.868;2023-04-01T01:01:38;8.40;99.90
19180;DHT22;9722;48.754;8.868;2023-04-01T01:04:58;8.40;99.90
19180;DHT22;9722;48.754;8.868;2023-04-01T01:08:30;8.40;99.90
19180;DHT22;9722;48.754;8.868;2023-04-01T01:12:13;8.40;99.90
19180;DHT22;9722;48.754;8.868;2023-04-01T01:19:33;8.50;99.90
19180;DHT22;9722;48.754;8.868;2023-04-01T01:33:39;8.70;99.90
19180;DHT22;9722;48.754;8.868;2023-04-01T01:37:10;8.70;99.80
19180;DHT22;9722;48.754;8.868;2023-04-01T01:40:34;8.70;99.90
19180;DHT22;9722;48.754;8.868;2023-04-01T01:43:57;8.60;99.90
19180;DHT22;9722;48.754;8.868;2023-04-01T01:47:22;8.60;99.90
19180;DHT22;9722;48.754;8.868;2023-04-01T01:50:45;8.60;99.90
19180;DHT22;9722;48.754;8.868;2023-04-01T01:54:06;8.60;99.90
19180;DHT22;9722;48.754;8.868;2023-04-01T01:57:31;8.60;99.90
19180;DHT22;9722;48.754;8.868;2023-04-01T02:00:56;8.60;99.90
19180;DHT22;9722;48.754;8.868;2023-04-01T02:04:18;8.60;99.90
19180;DHT22;9722;48.754;8.868;2023-04-01T02:07:39;8.60;99.90
19180;DHT22;9722;48.754;8.868;2023-04-01T02:11:08;8.60;99.90
19180;DHT22;9722;48.754;8.868;2023-04-01T02:15:16;8.60;99.80
19180;DHT22;9722;48.754;8.868;2023-04-01T02:18:32;8.60;99.60
19180;DHT22;9722;48.754;8.868;2023-04-01T02:21:57;8.70;99.30
19180;DHT22;9722;48.754;8.868;2023-04-01T02:25:29;8.70;98.90
19180;DHT22;9722;48.754;8.868;2023-04-01T02:28:51;8.70;98.90
19180;DHT22;9722;48.754;8.868;2023-04-01T02:32:13;8.70;98.90
19180;DHT22;9722;48.754;8.868;2023-04-01T02:35:36;8.60;98.70
19180;DHT22;9722;48.754;8.868;2023-04-01T02:38:57;8.50;98.80
19180;DHT22;9722;48.754;8.868;2023-04-01T02:42:22;8.40;98.70
19180;DHT22;9722;48.754;8.868;2023-04-01T02:45:43;8.40;98.70
19180;DHT22;9722;48.754;8.868;2023-04-01T02:49:04;8.40;98.50
19180;DHT22;9722;48.754;8.868;2023-04-01T02:52:25;8.40;98.40
19180;DHT22;9722;48.754;8.868;2023-04-01T02:55:46;8.30;98.30
19180;DHT22;9722;48.754;8.868;2023-04-01T02:59:06;8.30;98.40
19180;DHT22;9722;48.754;8.868;2023-04-01T03:02:27;8.30;98.50
19180;DHT22;9722;48.754;8.868;2023-04-01T03:05:47;8.30;98.50
19180;DHT22;9722;48.754;8.868;2023-04-01T03:09:08;8.30;98.50
19180;DHT22;9722;48.754;8.868;2023-04-01T03:12:29;8.30;98.50
19180;DHT22;9722;48.754;8.868;2023-04-01T03:15:49;8.20;98.50
19180;DHT22;9722;48.754;8.868;2023-04-01T03:19:10;8.20;98.50
19180;DHT22;9722;48.754;8.868;2023-04-01T03:22:31;8.20;98.60
19180;DHT22;9722;48.754;8.868;2023-04-01T03:25:51;8.10;98.70
19180;DHT22;9722;48.754;8.868;2023-04-01T03:29:12;8.10;98.80
19180;DHT22;9722;48.754;8.868;2023-04-01T03:32:32;8.10;98.80
19180;DHT22;9722;48.754;8.868;2023-04-01T03:35:53;8.10;98.80
19180;DHT22;9722;48.754;8.868;2023-04-01T03:39:14;8.10;98.70
19180;DHT22;9722;48.754;8.868;2023-04-01T03:42:38;8.10;98.80
19180;DHT22;9722;48.754;8.868;2023-04-01T03:45:59;8.00;98.60
19180;DHT22;9722;48.754;8.868;2023-04-01T03:49:20;8.00;98.60
19180;DHT22;9722;48.754;8.868;2023-04-01T03:52:40;7.90;98.60
19180;DHT22;9722;48.754;8.868;2023-04-01T03:56:07;7.90;98.70
19180;DHT22;9722;48.754;8.868;2023-04-01T03:59:28;7.80;98.70
19180;DHT22;9722;48.754;8.868;2023-04-01T04:02:49;7.80;98.70
19180;DHT22;9722;48.754;8.868;2023-04-01T04:06:13;7.80;98.70
19180;DHT22;9722;48.754;8.868;2023-04-01T04:09:34;7.80;98.70
19180;DHT22;9722;48.754;8.868;2023-04-01T04:12:55;7.80;98.60
19180;DHT22;9722;48.754;8.868;2023-04-01T04:16:17;7.80;98.60
19180;DHT22;9722;48.754;8.868;2023-04-01T04:19:37;7.80;98.60
19180;DHT22;9722;48.754;8.868;2023-04-01T04:22:58;7.70;98.60
19180;DHT22;9722;48.754;8.868;2023-04-01T04:26:20;7.70;98.80
19180;DHT22;9722;48.754;8.868;2023-04-01T04:29:41;7.90;98.90
19180;DHT22;9722;48.754;8.868;2023-04-01T04:33:01;7.80;98.90
19180;DHT22;9722;48.754;8.868;2023-04-01T04:36:22;7.70;99.00
19180;DHT22;9722;48.754;8.868;2023-04-01T04:39:43;7.70;99.20
19180;DHT22;9722;48.754;8.868;2023-04-01T04:43:03;7.70;99.30
19180;DHT22;9722;48.754;8.868;2023-04-01T04:46:24;7.70;99.60
19180;DHT22;9722;48.754;8.868;2023-04-01T04:49:45;7.70;99.70
19180;DHT22;9722;48.754;8.868;2023-04-01T04:53:06;7.70;99.80
19180;DHT22;9722;48.754;8.868;2023-04-01T04:56:26;7.80;99.90
19180;DHT22;9722;48.754;8.868;2023-04-01T04:59:47;7.70;99.90
19180;DHT22;9722;48.754;8.868;2023-04-01T05:03:07;7.80;99.90
19180;DHT22;9722;48.754;8.868;2023-04-01T05:06:28;7.90;99.70
19180;DHT22;9722;48.754;8.868;2023-04-01T05:09:49;7.90;99.60
19180;DHT22;9722;48.754;8.868;2023-04-01T05:13:10;7.90;99.40
19180;DHT22;9722;48.754;8.868;2023-04-01T05:16:31;8.00;99.40
19180;DHT22;9722;48.754;8.868;2023-04-01T05:19:52;8.00;99.30
19180;DHT22;9722;48.754;8.868;2023-04-01T05:23:12;8.00;99.20
19180;DHT22;9722;48.754;8.868;2023-04-01T05:26:33;8.10;99.00
19180;DHT22;9722;48.754;8.868;2023-04-01T05:29:53;8.20;98.60
19180;DHT22;9722;48.754;8.868;2023-04-01T05:33:14;8.30;98.40
19180;DHT22;9722;48.754;8.868;2023-04-01T05:36:34;8.30;98.10
19180;DHT22;9722;48.754;8.868;2023-04-01T05:39:55;8.40;97.70
19180;DHT22;9722;48.754;8.868;2023-04-01T05:43:16;8.40;97.60
19180;DHT22;9722;48.754;8.868;2023-04-01T05:46:37;8.40;97.30
19180;DHT22;9722;48.754;8.868;2023-04-01T05:49:57;8.50;97.10
19180;DHT22;9722;48.754;8.868;2023-04-01T05:53:18;8.50;96.80
19180;DHT22;9722;48.754;8.868;2023-04-01T05:56:38;8.60;96.60
19180;DHT22;9722;48.754;8.868;2023-04-01T05:59:59;8.70;96.50
19180;DHT22;9722;48.754;8.868;2023-04-01T06:03:19;8.70;96.20
19180;DHT22;9722;48.754;8.868;2023-04-01T06:06:40;8.80;95.70
19180;DHT22;9722;48.754;8.868;2023-04-01T06:10:00;8.90;95.30
19180;DHT22;9722;48.754;8.868;2023-04-01T06:21:37;9.00;95.30
19180;DHT22;9722;48.754;8.868;2023-04-01T06:29:10;8.70;96.00
19180;DHT22;9722;48.754;8.868;2023-04-01T06:40:40;8.40;97.80
19180;DHT22;9722;48.754;8.868;2023-04-01T06:44:22;8.40;98.40
19180;DHT22;9722;48.754;8.868;2023-04-01T06:51:43;8.30;99.20
19180;DHT22;9722;48.754;8.868;2023-04-01T06:55:35;8.40;99.40
19180;DHT22;9722;48.754;8.868;2023-04-01T07:02:38;8.40;99.80
19180;DHT22;9722;48.754;8.868;2023-04-01T07:06:05;8.40;99.80
19180;DHT22;9722;48.754;8.868;2023-04-01T07:09:37;8.40;99.90
19180;DHT22;9722;48.754;8.868;2023-04-01T07:13:01;8.30;99.90
19180;DHT22;9722;48.754;8.868;2023-04-01T07:16:29;8.30;99.90
19180;DHT22;9722;48.754;8.868;2023-04-01T07:19:59;8.30;99.90
19180;DHT22;9722;48.754;8.868;2023-04-01T07:23:29;8.30;99.90
19180;DHT22;9722;48.754;8.868;2023-04-01T07:26:56;8.30;99.90
19180;DHT22;9722;48.754;8.868;2023-04-01T07:30:22;8.40;99.90
19180;DHT22;9722;48.754;8.868;2023-04-01T07:40:49;8.50;99.90
19180;DHT22;9722;48.754;8.868;2023-04-01T07:44:26;8.60;99.90
19180;DHT22;9722;48.754;8.868;2023-04-01T07:48:09;8.60;99.90
19180;DHT22;9722;48.754;8.868;2023-04-01T07:51:41;8.60;99.90
19180;DHT22;9722;48.754;8.868;2023-04-01T07:55:16;8.60;99.90
19180;DHT22;9722;48.754;8.868;2023-04-01T08:05:57;8.70;99.90
19180;DHT22;9722;48.754;8.868;2023-04-01T08:09:33;8.70;99.90
19180;DHT22;9722;48.754;8.868;2023-04-01T08:16:35;8.80;99.90
19180;DHT22;9722;48.754;8.868;2023-04-01T08:23:43;8.60;99.90
19180;DHT22;9722;48.754;8.868;2023-04-01T08:27:39;8.50;99.90
19180;DHT22;9722;48.754;8.868;2023-04-01T08:31:16;8.40;99.90
19180;DHT22;9722;48.754;8.868;2023-04-01T08:34:42;8.30;99.90
19180;DHT22;9722;48.754;8.868;2023-04-01T08:38:17;8.20;99.90
19180;DHT22;9722;48.754;8.868;2023-04-01T08:52:33;8.10;99.90
19180;DHT22;9722;48.754;8.868;2023-04-01T08:56:09;8.30;99.90
19180;DHT22;9722;48.754;8.868;2023-04-01T08:59:56;8.50;99.90
19180;DHT22;9722;48.754;8.868;2023-04-01T09:11:38;9.00;99.90
19180;DHT22;9722;48.754;8.868;2023-04-01T09:18:32;9.30;99.90
19180;DHT22;9722;48.754;8.868;2023-04-01T09:37:32;9.30;99.90
19180;DHT22;9722;48.754;8.868;2023-04-01T09:44:22;9.20;99.90
19180;DHT22;9722;48.754;8.868;2023-04-01T09:48:09;9.30;99.90
19180;DHT22;9722;48.754;8.868;2023-04-01T09:59:43;9.40;99.90
19180;DHT22;9722;48.754;8.868;2023-04-01T10:18:25;10.70;98.60
19180;DHT22;9722;48.754;8.868;2023-04-01T10:25:53;12.00;95.40
19180;DHT22;9722;48.754;8.868;2023-04-01T10:33:15;13.50;90.70
19180;DHT22;9722;48.754;8.868;2023-04-01T10:36:50;13.70;86.60
19180;DHT22;9722;48.754;8.868;2023-04-01T10:48:12;13.30;83.80
19180;DHT22;9722;48.754;8.868;2023-04-01T10:55:42;13.60;84.10
19180;DHT22;9722;48.754;8.868;2023-04-01T11:03:21;14.70;78.40
19180;DHT22;9722;48.754;8.868;2023-04-01T11:11:14;14.70;72.00
19180;DHT22;9722;48.754;8.868;2023-04-01T11:15:05;14.60;73.30
19180;DHT22;9722;48.754;8.868;2023-04-01T11:40:47;13.80;74.40
19180;DHT22;9722;48.754;8.868;2023-04-01T11:44:26;13.60;75.60
19180;DHT22;9722;48.754;8.868;2023-04-01T11:47:57;13.60;75.00
19180;DHT22;9722;48.754;8.868;2023-04-01T11:55:19;13.80;75.50
19180;DHT22;9722;48.754;8.868;2023-04-01T12:06:49;14.60;73.30
19180;DHT22;9722;48.754;8.868;2023-04-01T12:10:21;14.70;71.30
19180;DHT22;9722;48.754;8.868;2023-04-01T12:13:59;14.90;71.50
19180;DHT22;9722;48.754;8.868;2023-04-01T12:25:04;16.80;68.30
19180;DHT22;9722;48.754;8.868;2023-04-01T12:28:45;17.40;65.30
19180;DHT22;9722;48.754;8.868;2023-04-01T12:47:42;19.30;54.90
19180;DHT22;9722;48.754;8.868;2023-04-01T12:58:32;16.00;60.00
19180;DHT22;9722;48.754;8.868;2023-04-01T13:02:12;15.30;62.80
19180;DHT22;9722;48.754;8.868;2023-04-01T13:21:04;13.50;69.20
19180;DHT22;9722;48.754;8.868;2023-04-01T13:24:38;13.70;69.70
19180;DHT22;9722;48.754;8.868;2023-04-01T13:28:23;13.90;69.80
19180;DHT22;9722;48.754;8.868;2023-04-01T13:32:04;14.00;68.30
19180;DHT22;9722;48.754;8.868;2023-04-01T13:35:50;14.00;67.70
19180;DHT22;9722;48.754;8.868;2023-04-01T13:39:35;13.90;68.50
19180;DHT22;9722;48.754;8.868;2023-04-01T13:43:09;13.70;67.50
19180;DHT22;9722;48.754;8.868;2023-04-01T13:46:42;13.50;68.60
19180;DHT22;9722;48.754;8.868;2023-04-01T13:54:09;13.30;70.70
19180;DHT22;9722;48.754;8.868;2023-04-01T13:57:57;13.20;71.40
19180;DHT22;9722;48.754;8.868;2023-04-01T14:01:32;13.00;73.50
19180;DHT22;9722;48.754;8.868;2023-04-01T14:12:59;13.20;74.50
19180;DHT22;9722;48.754;8.868;2023-04-01T14:20:51;13.40;75.00
19180;DHT22;9722;48.754;8.868;2023-04-01T14:24:52;13.50;75.10
19180;DHT22;9722;48.754;8.868;2023-04-01T14:40:16;13.20;76.50
19180;DHT22;9722;48.754;8.868;2023-04-01T14:44:04;13.10;77.30
19180;DHT22;9722;48.754;8.868;2023-04-01T14:47:54;13.00;76.50
19180;DHT22;9722;48.754;8.868;2023-04-01T14:51:28;12.80;76.70
19180;DHT22;9722;48.754;8.868;2023-04-01T14:54:50;12.60;77.10
19180;DHT22;9722;48.754;8.868;2023-04-01T14:58:17;12.30;78.20
19180;DHT22;9722;48.754;8.868;2023-04-01T15:08:57;11.90;81.90
19180;DHT22;9722;48.754;8.868;2023-04-01T15:27:46;12.00;81.20
19180;DHT22;9722;48.754;8.868;2023-04-01T15:38:48;12.20;80.90
19180;DHT22;9722;48.754;8.868;2023-04-01T15:42:25;12.30;80.40
19180;DHT22;9722;48.754;8.868;2023-04-01T15:45:58;12.30;79.40
19180;DHT22;9722;48.754;8.868;2023-04-01T15:49:36;12.30;79.30
19180;DHT22;9722;48.754;8.868;2023-04-01T15:53:03;12.10;79.30
19180;DHT22;9722;48.754;8.868;2023-04-01T15:56:43;12.00;79.70
19180;DHT22;9722;48.754;8.868;2023-04-01T16:00:23;11.90;80.40
19180;DHT22;9722;48.754;8.868;2023-04-01T16:15:08;11.40;80.80
19180;DHT22;9722;48.754;8.868;2023-04-01T16:22:13;11.30;81.60
19180;DHT22;9722;48.754;8.868;2023-04-01T16:25:39;11.30;81.90
19180;DHT22;9722;48.754;8.868;2023-04-01T16:29:10;11.20;82.30
19180;DHT22;9722;48.754;8.868;2023-04-01T16:32:46;11.20;82.90
19180;DHT22;9722;48.754;8.868;2023-04-01T16:36:20;11.20;83.40
19180;DHT22;9722;48.754;8.868;2023-04-01T16:43:46;11.00;84.20
19180;DHT22;9722;48.754;8.868;2023-04-01T16:47:12;11.00;84.90
19180;DHT22;9722;48.754;8.868;2023-04-01T16:50:44;10.90;85.20
19180;DHT22;9722;48.754;8.868;2023-04-01T17:01:19;10.80;86.00
19180;DHT22;9722;48.754;8.868;2023-04-01T17:05:08;10.70;85.90
19180;DHT22;9722;48.754;8.868;2023-04-01T17:15:56;10.50;86.50
19180;DHT22;9722;48.754;8.868;2023-04-01T17:19:42;10.50;87.00
19180;DHT22;9722;48.754;8.868;2023-04-01T17:30:17;10.50;88.30
19180;DHT22;9722;48.754;8.868;2023-04-01T17:37:36;10.50;88.80
19180;DHT22;9722;48.754;8.868;2023-04-01T17:52:38;10.50;90.70
19180;DHT22;9722;48.754;8.868;2023-04-01T17:56:24;10.50;91.00
19180;DHT22;9722;48.754;8.868;2023-04-01T18:03:54;10.40;91.80
19180;DHT22;9722;48.754;8.868;2023-04-01T18:07:25;10.40;92.20
19180;DHT22;9722;48.754;8.868;2023-04-01T18:10:58;10.30;92.40
19180;DHT22;9722;48.754;8.868;2023-04-01T18:14:42;10.10;92.70
19180;DHT22;9722;48.754;8.868;2023-04-01T18:18:35;9.90;93.30
19180;DHT22;9722;48.754;8.868;2023-04-01T18:25:41;9.40;93.30
19180;DHT22;9722;48.754;8.868;2023-04-01T18:32:59;9.10;93.60
19180;DHT22;9722;48.754;8.868;2023-04-01T18:36:55;8.90;93.80
19180;DHT22;9722;48.754;8.868;2023-04-01T19:05:38;8.00;95.60
19180;DHT22;9722;48.754;8.868;2023-04-01T19:09:33;7.90;96.00
19180;DHT22;9722;48.754;8.868;2023-04-01T19:17:22;8.00;96.50
19180;DHT22;9722;48.754;8.868;2023-04-01T19:20:52;8.00;96.60
19180;DHT22;9722;48.754;8.868;2023-04-01T19:28:01;8.10;97.00
19180;DHT22;9722;48.754;8.868;2023-04-01T19:35:43;8.00;97.40
19180;DHT22;9722;48.754;8.868;2023-04-01T19:43:02;7.90;97.80
19180;DHT22;9722;48.754;8.868;2023-04-01T19:46:37;7.90;98.10
19180;DHT22;9722;48.754;8.868;2023-04-01T19:50:20;7.90;98.30
19180;DHT22;9722;48.754;8.868;2023-04-01T19:54:03;7.90;98.50
19180;DHT22;9722;48.754;8.868;2023-04-01T19:57:50;7.90;98.70
19180;DHT22;9722;48.754;8.868;2023-04-01T20:01:23;8.10;98.90
19180;DHT22;9722;48.754;8.868;2023-04-01T20:04:53;8.20;98.80
19180;DHT22;9722;48.754;8.868;2023-04-01T20:08:32;8.20;98.80
19180;DHT22;9722;48.754;8.868;2023-04-01T20:18:58;8.40;99.00
19180;DHT22;9722;48.754;8.868;2023-04-01T20:26:09;8.60;98.90
19180;DHT22;9722;48.754;8.868;2023-04-01T20:29:41;8.70;99.00
19180;DHT22;9722;48.754;8.868;2023-04-01T20:37:00;8.80;98.90
19180;DHT22;9722;48.754;8.868;2023-04-01T20:51:06;8.70;98.50
19180;DHT22;9722;48.754;8.868;2023-04-01T20:58:35;8.40;98.70
19180;DHT22;9722;48.754;8.868;2023-04-01T21:13:33;8.20;99.30
19180;DHT22;9722;48.754;8.868;2023-04-01T21:17:08;8.20;99.50
19180;DHT22;9722;48.754;8.868;2023-04-01T21:24:37;8.10;99.60
19180;DHT22;9722;48.754;8.868;2023-04-01T21:31:42;8.10;99.90
19180;DHT22;9722;48.754;8.868;2023-04-01T21:53:16;8.10;99.90
19180;DHT22;9722;48.754;8.868;2023-04-01T21:57:03;8.00;99.90
19180;DHT22;9722;48.754;8.868;2023-04-01T22:00:32;8.00;99.90
19180;DHT22;9722;48.754;8.868;2023-04-01T22:11:24;8.00;99.90
19180;DHT22;9722;48.754;8.868;2023-04-01T22:22:19;8.00;99.80
19180;DHT22;9722;48.754;8.868;2023-04-01T22:33:07;7.90;99.60
19180;DHT22;9722;48.754;8.868;2023-04-01T22:36:44;7.80;99.70
19180;DHT22;9722;48.754;8.868;2023-04-01T22:40:14;7.60;99.80
19180;DHT22;9722;48.754;8.868;2023-04-01T22:43:40;7.50;99.90
19180;DHT22;9722;48.754;8.868;2023-04-01T22:50:50;7.20;99.90
19180;DHT22;9722;48.754;8.868;2023-04-01T22:54:37;7.20;99.90
19180;DHT22;9722;48.754;8.868;2023-04-01T22:58:04;7.10;99.90
19180;DHT22;9722;48.754;8.868;2023-04-01T23:01:29;7.00;99.90
19180;DHT22;9722;48.754;8.868;2023-04-01T23:04:56;6.90;99.90
19180;DHT22;9722;48.754;8.868;2023-04-01T23:15:13;6.70;99.90
19180;DHT22;9722;48.754;8.868;2023-04-01T23:18:50;6.70;99.90
19180;DHT22;9722;48.754;8.868;2023-04-01T23:29:18;6.80;99.90
19180;DHT22;9722;48.754;8.868;2023-04-01T23:32:39;6.80;99.90
19180;DHT22;9722;48.754;8.868;2023-04-01T23:36:11;6.90;99.90
19180;DHT22;9722;48.754;8.868;2023-04-01T23:39:41;7.00;99.90
19180;DHT22;9722;48.754;8.868;2023-04-01T23:43:02;7.00;99.90
19180;DHT22;9722;48.754;8.868;2023-04-01T23:46:23;7.10;99.90
19180;DHT22;9722;48.754;8.868;2023-04-01T23:49:56;7.20;99.90
19180;DHT22;9722;48.754;8.868;2023-04-01T23:53:25;7.20;99.90
19180;DHT22;9722;48.754;8.868;2023-04-01T23:56:49;7.20;99.90
